Time;durP1;ratioP1;P1;durP2;ratioP2;P2;SDS_P1;SDS_P2;PMS_P1;PMS_P2;Temp;Humidity;BMP_temperature;BMP_pressure;BME280_temperature;BME280_humidity;BME280_pressure;Samples;Min_cycle;Max_cycle;Signal;HPM_P1;HPM_P2
2022/04/03 00:00:58;;;;;;;1.40;1.30;;;16.20;56.10;;;;;;5031083;28;20033;-68
2022/04/03 00:03:24;;;;;;;1.42;1.33;;;16.20;56.10;;;;;;5031241;28;20116;-68
2022/04/03 00:05:50;;;;;;;1.48;1.30;;;16.20;56.20;;;;;;5031508;28;20093;-68
2022/04/03 00:08:15;;;;;;;1.48;1.38;;;16.20;56.10;;;;;;5032446;28;20030;-68
2022/04/03 00:10:42;;;;;;;1.30;1.20;;;16.20;56.10;;;;;;5032502;28;20087;-68
2022/04/03 00:13:07;;;;;;;1.60;1.40;;;16.20;56.10;;;;;;5030888;28;20484;-68
2022/04/03 00:15:33;;;;;;;2.60;1.45;;;16.20;56.10;;;;;;5030403;28;20027;-68
2022/04/03 00:17:59;;;;;;;1.35;1.23;;;16.20;56.10;;;;;;5032408;28;20036;-68
2022/04/03 00:20:25;;;;;;;1.40;1.30;;;16.20;56.10;;;;;;5032327;28;20032;-68
2022/04/03 00:22:52;;;;;;;1.27;1.17;;;16.10;57.10;;;;;;5031071;28;20029;-68
2022/04/03 00:25:18;;;;;;;1.77;1.40;;;16.20;56.10;;;;;;5031180;28;20018;-68
2022/04/03 00:27:45;;;;;;;1.40;1.30;;;16.10;56.00;;;;;;5030873;28;20030;-68
2022/04/03 00:30:11;;;;;;;1.40;1.30;;;16.20;56.10;;;;;;5032163;28;20021;-68
2022/04/03 00:32:37;;;;;;;1.45;1.30;;;16.10;56.00;;;;;;5014712;28;20036;-68
2022/04/03 00:35:03;;;;;;;1.40;1.20;;;16.10;56.00;;;;;;5030990;28;20021;-68
2022/04/03 00:37:29;;;;;;;1.83;1.50;;;16.10;56.00;;;;;;5031041;28;20030;-68
2022/04/03 00:39:55;;;;;;;1.33;1.20;;;16.10;56.00;;;;;;5032289;28;20396;-68
2022/04/03 00:42:21;;;;;;;1.60;1.50;;;16.10;56.00;;;;;;5030885;28;20052;-68
2022/04/03 00:44:47;;;;;;;2.40;1.20;;;16.10;56.00;;;;;;5030674;28;20508;-68
2022/04/03 00:47:13;;;;;;;1.30;1.20;;;16.10;56.00;;;;;;5032209;28;20032;-69
2022/04/03 00:49:39;;;;;;;1.38;1.20;;;16.10;56.00;;;;;;5030734;28;20404;-69
2022/04/03 00:52:05;;;;;;;1.83;1.30;;;16.10;56.00;;;;;;5030995;28;20021;-69
2022/04/03 00:54:31;;;;;;;1.65;1.27;;;16.00;56.00;;;;;;5030876;28;20046;-69
2022/04/03 00:56:56;;;;;;;1.40;1.30;;;16.00;55.90;;;;;;5030723;28;20061;-69
2022/04/03 00:59:22;;;;;;;1.40;1.30;;;16.10;56.00;;;;;;5030839;28;20021;-69
2022/04/03 01:01:48;;;;;;;1.80;1.25;;;16.00;55.90;;;;;;5031845;28;20040;-69
2022/04/03 01:04:13;;;;;;;1.40;1.25;;;16.00;55.90;;;;;;5030717;28;20036;-69
2022/04/03 01:06:39;;;;;;;1.23;1.13;;;16.00;55.90;;;;;;5031970;28;20029;-69
2022/04/03 01:09:05;;;;;;;1.25;1.15;;;16.00;55.90;;;;;;5014137;28;20033;-69
2022/04/03 01:11:31;;;;;;;2.13;1.25;;;16.00;55.90;;;;;;5031647;28;20022;-69
2022/04/03 01:13:57;;;;;;;1.20;1.10;;;16.00;56.00;;;;;;5030619;28;20018;-69
2022/04/03 01:16:23;;;;;;;1.40;1.27;;;16.00;56.00;;;;;;5030671;28;20044;-69
2022/04/03 01:18:49;;;;;;;1.52;1.13;;;16.00;56.00;;;;;;5031859;28;20480;-69
2022/04/03 01:21:16;;;;;;;1.40;1.30;;;16.00;55.90;;;;;;5030713;28;20103;-69
2022/04/03 01:23:42;;;;;;;1.33;1.23;;;16.00;56.00;;;;;;5030546;28;20033;-69
2022/04/03 01:26:07;;;;;;;1.65;1.20;;;15.90;55.80;;;;;;5031505;28;20030;-69
2022/04/03 01:28:33;;;;;;;1.30;1.15;;;15.90;55.80;;;;;;5034729;28;20037;-69
2022/04/03 01:30:59;;;;;;;1.70;1.17;;;15.90;55.80;;;;;;5035288;28;20021;-69
2022/04/03 01:33:24;;;;;;;1.10;0.98;;;15.90;55.80;;;;;;5035230;28;20025;-69
2022/04/03 01:35:50;;;;;;;1.42;1.17;;;15.90;55.80;;;;;;5033780;28;20021;-69
2022/04/03 01:38:16;;;;;;;1.33;1.20;;;15.90;55.80;;;;;;5034884;28;20032;-69
2022/04/03 01:40:41;;;;;;;1.30;1.20;;;15.90;55.80;;;;;;5033862;28;20041;-69
2022/04/03 01:43:08;;;;;;;2.15;1.38;;;15.90;55.80;;;;;;5034890;28;20088;-69
2022/04/03 01:45:34;;;;;;;1.52;1.27;;;15.90;55.80;;;;;;5033748;28;20109;-69
2022/04/03 01:48:00;;;;;;;1.25;1.15;;;15.90;55.80;;;;;;5035003;28;20026;-69
2022/04/03 01:50:26;;;;;;;1.80;1.20;;;15.90;55.80;;;;;;5034929;28;20037;-69
2022/04/03 01:52:52;;;;;;;1.38;1.27;;;15.90;55.80;;;;;;5033465;28;20100;-69
2022/04/03 01:55:18;;;;;;;1.35;1.25;;;15.90;55.80;;;;;;5033661;28;20101;-69
2022/04/03 01:57:44;;;;;;;1.27;1.17;;;15.90;55.80;;;;;;5033469;28;20034;-69
2022/04/03 02:00:10;;;;;;;1.20;1.10;;;15.90;55.70;;;;;;5034603;28;20377;-69
2022/04/03 02:02:36;;;;;;;2.10;1.10;;;15.80;55.70;;;;;;5033568;28;20034;-69
2022/04/03 02:05:03;;;;;;;1.05;0.98;;;15.80;55.70;;;;;;5033346;28;20476;-69
2022/04/03 02:07:29;;;;;;;1.20;1.10;;;15.80;55.70;;;;;;5034439;28;20391;-69
2022/04/03 02:09:55;;;;;;;1.20;1.10;;;15.80;55.70;;;;;;5019202;28;20018;-69
2022/04/03 02:12:21;;;;;;;1.40;1.20;;;15.80;55.70;;;;;;5014664;28;20026;-69
2022/04/03 02:14:46;;;;;;;2.00;1.33;;;15.80;55.70;;;;;;5026370;28;20026;-69
2022/04/03 02:17:12;;;;;;;1.42;1.10;;;15.80;55.70;;;;;;5034619;28;20365;-69
2022/04/03 02:19:37;;;;;;;1.58;1.48;;;15.80;55.70;;;;;;5033124;28;20030;-69
2022/04/03 02:22:03;;;;;;;1.33;1.02;;;15.80;55.70;;;;;;5034151;28;20030;-69
2022/04/03 02:24:29;;;;;;;1.30;1.15;;;15.80;55.70;;;;;;5034440;28;20495;-69
2022/04/03 02:26:54;;;;;;;1.45;1.20;;;15.70;55.60;;;;;;5034351;28;20037;-69
2022/04/03 02:29:20;;;;;;;1.27;1.15;;;15.70;55.60;;;;;;5034290;28;20033;-69
2022/04/03 02:31:46;;;;;;;1.23;1.10;;;15.70;55.60;;;;;;5033971;28;20079;-69
2022/04/03 02:34:11;;;;;;;1.10;1.00;;;15.70;55.60;;;;;;5034119;28;20022;-69
2022/04/03 02:36:40;;;;;;;1.10;1.00;;;15.70;55.60;;;;;;5033899;28;20075;-69
2022/04/03 02:39:06;;;;;;;1.30;1.20;;;15.70;55.60;;;;;;5032121;28;20022;-69
2022/04/03 02:41:32;;;;;;;1.77;1.45;;;15.70;55.60;;;;;;5032795;28;20112;-69
2022/04/03 02:43:58;;;;;;;1.20;1.10;;;15.70;55.70;;;;;;5033523;28;20136;-69
2022/04/03 02:46:23;;;;;;;0.90;0.80;;;15.70;55.60;;;;;;5033786;28;20037;-69
2022/04/03 02:48:49;;;;;;;1.92;1.10;;;15.70;55.60;;;;;;5033637;28;20033;-69
2022/04/03 02:51:15;;;;;;;1.20;1.10;;;15.70;55.60;;;;;;5032649;28;20035;-69
2022/04/03 02:53:41;;;;;;;1.15;1.02;;;15.70;55.60;;;;;;5033884;28;20052;-69
2022/04/03 02:56:07;;;;;;;1.27;1.17;;;15.70;55.60;;;;;;5033453;28;20025;-69
2022/04/03 02:58:32;;;;;;;1.20;1.10;;;15.70;55.60;;;;;;5032567;28;20090;-69
2022/04/03 03:00:58;;;;;;;0.82;0.82;;;15.60;55.50;;;;;;5032098;28;20048;-69
2022/04/03 03:03:23;;;;;;;1.60;1.30;;;15.60;55.60;;;;;;5033644;28;20063;-69
2022/04/03 03:05:49;;;;;;;1.20;1.10;;;15.60;55.60;;;;;;5033169;28;20051;-69
2022/04/03 03:08:15;;;;;;;1.98;1.33;;;15.60;55.50;;;;;;5031828;28;20071;-69
2022/04/03 03:10:40;;;;;;;0.90;0.90;;;15.60;55.50;;;;;;5013535;28;20033;-69
2022/04/03 03:13:06;;;;;;;1.23;1.13;;;15.60;55.60;;;;;;5013628;28;20026;-69
2022/04/03 03:15:32;;;;;;;1.27;0.98;;;15.60;55.60;;;;;;5013591;28;20022;-69
2022/04/03 03:17:58;;;;;;;0.90;0.90;;;15.60;55.50;;;;;;5013565;28;20022;-69
2022/04/03 03:20:23;;;;;;;1.70;1.40;;;15.60;55.50;;;;;;5013227;28;20488;-69
2022/04/03 03:22:49;;;;;;;1.15;1.00;;;15.60;55.50;;;;;;5013229;28;20036;-69
2022/04/03 03:25:15;;;;;;;1.38;1.10;;;15.60;55.50;;;;;;5012158;28;20040;-69
2022/04/03 03:27:40;;;;;;;1.33;1.00;;;15.60;55.50;;;;;;5013298;28;20025;-69
2022/04/03 03:30:07;;;;;;;1.20;1.10;;;15.60;55.60;;;;;;5012108;28;20029;-69
2022/04/03 03:32:33;;;;;;;1.42;1.10;;;15.50;55.50;;;;;;5013305;28;20465;-69
2022/04/03 03:34:59;;;;;;;1.42;0.98;;;15.50;55.50;;;;;;5011682;28;20113;-69
2022/04/03 03:37:25;;;;;;;1.85;1.15;;;15.60;55.50;;;;;;5013313;28;20105;-69
2022/04/03 03:39:51;;;;;;;0.95;0.95;;;15.60;55.50;;;;;;5012220;28;20480;-69
2022/04/03 03:42:16;;;;;;;1.00;1.00;;;15.50;55.40;;;;;;5013070;28;20025;-69
2022/04/03 03:44:42;;;;;;;1.23;1.10;;;15.50;55.40;;;;;;5012836;28;20054;-69
2022/04/03 03:47:08;;;;;;;1.20;0.90;;;15.50;55.50;;;;;;5012923;28;20026;-69
2022/04/03 03:49:34;;;;;;;1.33;1.23;;;15.50;55.50;;;;;;5012739;28;20037;-69
2022/04/03 03:52:00;;;;;;;1.77;1.10;;;15.50;55.50;;;;;;5011779;28;20018;-69
2022/04/03 03:54:25;;;;;;;0.90;0.90;;;15.50;55.40;;;;;;5011756;28;20416;-69
2022/04/03 03:56:51;;;;;;;1.48;1.00;;;15.50;55.40;;;;;;5012820;28;20022;-69
2022/04/03 03:59:17;;;;;;;1.27;1.17;;;15.50;55.40;;;;;;5018405;28;20036;-69
2022/04/03 04:01:43;;;;;;;1.13;1.00;;;15.50;55.50;;;;;;5032562;28;20026;-69
2022/04/03 04:04:08;;;;;;;1.25;1.00;;;15.50;55.40;;;;;;5031217;28;20499;-69
2022/04/03 04:06:34;;;;;;;1.00;0.90;;;15.50;55.40;;;;;;5032719;28;20029;-69
2022/04/03 04:08:59;;;;;;;1.23;1.10;;;15.40;55.40;;;;;;5032259;28;20391;-69
2022/04/03 04:11:25;;;;;;;1.10;1.00;;;15.40;55.40;;;;;;5032513;28;20028;-69
2022/04/03 04:13:51;;;;;;;0.98;0.90;;;15.40;55.40;;;;;;5032420;28;20029;-69
2022/04/03 04:16:17;;;;;;;1.02;0.93;;;15.40;55.40;;;;;;5032527;28;20040;-69
2022/04/03 04:18:43;;;;;;;1.02;1.00;;;15.40;55.40;;;;;;5031218;28;20041;-69
2022/04/03 04:21:10;;;;;;;1.35;1.00;;;15.40;55.30;;;;;;5031058;28;20032;-69
2022/04/03 04:23:36;;;;;;;1.00;0.90;;;15.40;55.40;;;;;;5031083;28;20021;-69
2022/04/03 04:26:01;;;;;;;1.30;1.00;;;15.40;55.30;;;;;;5031246;28;20518;-69
2022/04/03 04:28:27;;;;;;;1.30;1.20;;;15.40;55.40;;;;;;5030952;28;20440;-68
2022/04/03 04:30:53;;;;;;;1.48;1.17;;;15.40;55.40;;;;;;5032187;28;20524;-68
2022/04/03 04:33:20;;;;;;;0.90;0.90;;;15.40;55.40;;;;;;5030974;28;20060;-68
2022/04/03 04:35:45;;;;;;;1.02;0.93;;;15.40;55.40;;;;;;5032516;28;20023;-68
2022/04/03 04:38:11;;;;;;;1.30;1.20;;;15.30;55.40;;;;;;5032105;28;20392;-68
2022/04/03 04:40:36;;;;;;;1.20;1.10;;;15.40;55.30;;;;;;5031204;28;20024;-68
2022/04/03 04:43:02;;;;;;;1.15;1.05;;;15.40;55.30;;;;;;5031764;28;20083;-68
2022/04/03 04:45:28;;;;;;;0.93;0.70;;;15.30;55.30;;;;;;5032191;28;20026;-68
2022/04/03 04:47:59;;;;;;;0.80;0.80;;;15.30;55.30;;;;;;5031878;28;20075;-68
2022/04/03 04:50:26;;;;;;;1.17;1.08;;;15.30;55.30;;;;;;5015391;28;20480;-68
2022/04/03 04:52:51;;;;;;;1.02;0.98;;;15.30;55.30;;;;;;5030814;28;20021;-68
2022/04/03 04:55:19;;;;;;;1.15;0.98;;;15.30;55.30;;;;;;5031075;28;20071;-68
2022/04/03 04:57:49;;;;;;;1.27;1.10;;;15.30;55.30;;;;;;5032021;28;20014;-68
2022/04/03 05:00:16;;;;;;;1.08;0.95;;;15.30;55.30;;;;;;5031689;28;20037;-68
2022/04/03 05:02:45;;;;;;;1.38;1.00;;;15.30;55.40;;;;;;5033809;28;20032;-68
2022/04/03 05:05:13;;;;;;;1.20;1.00;;;15.30;55.30;;;;;;5035898;28;20053;-68
2022/04/03 05:07:39;;;;;;;1.00;0.90;;;15.30;55.30;;;;;;5034646;28;20493;-68
2022/04/03 05:10:05;;;;;;;0.88;0.88;;;15.30;55.30;;;;;;5017914;28;20053;-68
2022/04/03 05:12:31;;;;;;;1.17;1.08;;;15.30;55.30;;;;;;5014776;28;20022;-68
2022/04/03 05:14:57;;;;;;;1.10;1.00;;;15.30;55.30;;;;;;5014609;28;20096;-68
2022/04/03 05:17:23;;;;;;;1.25;0.90;;;15.20;55.20;;;;;;5015624;28;20080;-68
2022/04/03 05:19:48;;;;;;;0.80;0.80;;;15.20;55.20;;;;;;5014727;28;20038;-68
2022/04/03 05:22:14;;;;;;;1.00;0.90;;;15.20;55.20;;;;;;5015527;28;20034;-68
2022/04/03 05:24:39;;;;;;;0.80;0.70;;;15.20;55.30;;;;;;5015691;28;20447;-68
2022/04/03 05:27:05;;;;;;;0.90;0.70;;;15.20;55.20;;;;;;5014393;28;20472;-68
2022/04/03 05:29:34;;;;;;;1.45;1.00;;;15.20;55.30;;;;;;5015677;28;20034;-68
2022/04/03 05:32:00;;;;;;;0.80;0.80;;;15.20;55.20;;;;;;5015574;28;20101;-68
2022/04/03 05:34:25;;;;;;;1.10;1.00;;;15.20;55.20;;;;;;5015526;28;20497;-68
2022/04/03 05:36:51;;;;;;;0.90;0.90;;;15.20;55.30;;;;;;5015371;28;20044;-68
2022/04/03 05:39:17;;;;;;;1.42;0.85;;;15.20;55.20;;;;;;5015464;28;20407;-68
2022/04/03 05:41:43;;;;;;;1.60;0.80;;;15.20;55.30;;;;;;5015449;28;20022;-68
2022/04/03 05:44:09;;;;;;;0.85;0.77;;;15.20;55.20;;;;;;5014866;28;20053;-68
2022/04/03 05:46:34;;;;;;;0.80;0.80;;;15.20;55.20;;;;;;5014082;28;20025;-68
2022/04/03 05:49:00;;;;;;;1.65;0.90;;;15.20;55.20;;;;;;5013879;28;20469;-68
2022/04/03 05:51:26;;;;;;;1.00;0.90;;;15.20;55.20;;;;;;5014101;28;20022;-68
2022/04/03 05:53:52;;;;;;;0.80;0.60;;;15.10;55.20;;;;;;5015058;28;20028;-68
2022/04/03 05:56:17;;;;;;;0.77;0.77;;;15.10;55.20;;;;;;5013916;28;20068;-68
2022/04/03 05:58:43;;;;;;;1.23;0.90;;;15.10;55.30;;;;;;5016009;28;20026;-68
2022/04/03 06:01:09;;;;;;;0.73;0.73;;;15.10;55.30;;;;;;5033330;28;20411;-68
2022/04/03 06:03:35;;;;;;;0.68;0.68;;;15.10;55.20;;;;;;5033578;28;20035;-68
2022/04/03 06:06:01;;;;;;;0.80;0.80;;;15.10;55.30;;;;;;5033561;28;20029;-68
2022/04/03 06:08:26;;;;;;;0.80;0.80;;;15.10;55.20;;;;;;5031367;28;20018;-68
2022/04/03 06:10:52;;;;;;;0.65;0.65;;;15.10;55.20;;;;;;5014752;28;20030;-68
2022/04/03 06:13:18;;;;;;;0.65;0.65;;;15.10;55.20;;;;;;5013820;28;20029;-68
2022/04/03 06:15:45;;;;;;;0.70;0.70;;;15.10;55.20;;;;;;5014280;28;20029;-68
2022/04/03 06:18:14;;;;;;;0.80;0.80;;;15.10;55.20;;;;;;5013484;28;20022;-68
2022/04/03 06:20:40;;;;;;;0.80;0.80;;;15.10;55.20;;;;;;5013488;28;20052;-68
2022/04/03 06:23:13;;;;;;;0.70;0.70;;;15.00;55.10;;;;;;5013268;28;20412;-68
2022/04/03 06:25:39;;;;;;;0.90;0.90;;;15.10;55.20;;;;;;5013591;28;20029;-68
2022/04/03 06:28:05;;;;;;;0.68;0.63;;;15.00;55.10;;;;;;5014347;28;20030;-68
2022/04/03 06:30:30;;;;;;;0.77;0.77;;;15.00;55.10;;;;;;5014370;28;20452;-68
2022/04/03 06:32:56;;;;;;;0.85;0.82;;;15.00;55.10;;;;;;5014509;28;20080;-68
2022/04/03 06:35:22;;;;;;;1.05;0.90;;;15.00;55.10;;;;;;5013170;28;20095;-68
2022/04/03 06:37:48;;;;;;;1.00;0.90;;;15.00;55.20;;;;;;5013110;28;20508;-68
2022/04/03 06:40:13;;;;;;;0.80;0.70;;;15.00;55.20;;;;;;5012929;28;20072;-68
2022/04/03 06:42:39;;;;;;;1.00;0.90;;;15.00;55.20;;;;;;5014310;28;20030;-68
2022/04/03 06:45:05;;;;;;;0.95;0.77;;;15.00;55.20;;;;;;5012471;28;20084;-68
2022/04/03 06:47:31;;;;;;;0.73;0.70;;;15.00;55.20;;;;;;5012985;28;20022;-68
2022/04/03 06:49:57;;;;;;;0.73;0.73;;;15.00;55.20;;;;;;5013993;28;20503;-68
2022/04/03 06:52:23;;;;;;;0.52;0.52;;;15.00;55.20;;;;;;5012759;28;20109;-68
2022/04/03 06:54:49;;;;;;;0.70;0.70;;;15.00;55.20;;;;;;5013999;28;20105;-68
2022/04/03 06:57:15;;;;;;;1.40;1.00;;;15.00;55.10;;;;;;5014093;28;20026;-68
2022/04/03 06:59:42;;;;;;;0.70;0.70;;;15.00;55.20;;;;;;5021585;28;20032;-68
2022/04/03 07:02:07;;;;;;;1.13;0.80;;;15.00;55.20;;;;;;5032371;28;20049;-68
2022/04/03 07:04:34;;;;;;;1.00;0.80;;;14.90;55.10;;;;;;5032624;28;20468;-68
2022/04/03 07:07:00;;;;;;;0.80;0.70;;;15.00;55.20;;;;;;5033438;28;20017;-68
2022/04/03 07:09:25;;;;;;;1.13;0.70;;;14.90;55.10;;;;;;5022346;28;20041;-68
2022/04/03 07:11:51;;;;;;;0.70;0.70;;;14.90;55.10;;;;;;5013590;28;20026;-68
2022/04/03 07:14:16;;;;;;;0.98;0.70;;;14.90;55.20;;;;;;5013492;28;20044;-68
2022/04/03 07:16:42;;;;;;;0.73;0.73;;;14.90;55.10;;;;;;5013673;28;20503;-68
2022/04/03 07:19:08;;;;;;;0.90;0.80;;;14.90;55.10;;;;;;5013439;28;20097;-68
2022/04/03 07:21:33;;;;;;;0.70;0.70;;;14.90;55.10;;;;;;5013566;28;20024;-68
2022/04/03 07:23:59;;;;;;;0.70;0.70;;;14.90;55.10;;;;;;5012147;28;20504;-68
2022/04/03 07:26:25;;;;;;;0.88;0.80;;;14.90;55.10;;;;;;5012904;28;20025;-68
2022/04/03 07:28:51;;;;;;;0.70;0.70;;;14.90;55.10;;;;;;5013290;28;20033;-68
2022/04/03 07:31:16;;;;;;;0.80;0.80;;;14.90;55.10;;;;;;5013334;28;20026;-68
2022/04/03 07:33:42;;;;;;;0.75;0.75;;;14.90;55.20;;;;;;5013317;28;20026;-68
2022/04/03 07:36:08;;;;;;;0.80;0.80;;;14.90;55.10;;;;;;5012144;28;20018;-68
2022/04/03 07:38:33;;;;;;;1.00;0.65;;;14.90;55.20;;;;;;5013284;28;20025;-68
2022/04/03 07:40:59;;;;;;;0.82;0.80;;;14.90;55.10;;;;;;5011900;28;20026;-68
2022/04/03 07:43:26;;;;;;;0.65;0.65;;;14.90;55.10;;;;;;5011664;28;20066;-68
2022/04/03 07:45:52;;;;;;;0.70;0.70;;;14.90;55.20;;;;;;5012046;28;20021;-68
2022/04/03 07:48:17;;;;;;;0.75;0.75;;;14.90;55.10;;;;;;5011942;28;20559;-68
2022/04/03 07:50:43;;;;;;;1.02;0.75;;;14.80;55.10;;;;;;5011933;28;20085;-68
2022/04/03 07:53:09;;;;;;;0.68;0.60;;;14.80;55.10;;;;;;5012981;28;20026;-68
2022/04/03 07:55:34;;;;;;;0.70;0.70;;;14.80;55.10;;;;;;5012651;28;20468;-68
2022/04/03 07:58:00;;;;;;;0.80;0.70;;;14.80;55.10;;;;;;5013052;28;20030;-68
2022/04/03 08:00:26;;;;;;;1.63;0.80;;;14.80;55.10;;;;;;5026487;28;20029;-68
2022/04/03 08:02:51;;;;;;;0.77;0.77;;;14.80;55.20;;;;;;5032658;28;20030;-68
2022/04/03 08:05:17;;;;;;;0.70;0.70;;;14.80;55.10;;;;;;5032556;28;20491;-68
2022/04/03 08:07:44;;;;;;;0.57;0.57;;;14.80;55.10;;;;;;5031373;28;20029;-68
2022/04/03 08:10:12;;;;;;;0.93;0.73;;;14.80;55.20;;;;;;5031025;28;20030;-68
2022/04/03 08:12:38;;;;;;;0.63;0.63;;;14.80;55.10;;;;;;5032484;28;20022;-68
2022/04/03 08:15:04;;;;;;;0.50;0.50;;;14.80;55.10;;;;;;5032417;28;20113;-68
2022/04/03 08:17:31;;;;;;;0.50;0.50;;;14.80;55.10;;;;;;5031164;28;20101;-68
2022/04/03 08:19:56;;;;;;;0.60;0.60;;;14.80;55.10;;;;;;5014673;28;20396;-68
2022/04/03 08:22:23;;;;;;;0.60;0.60;;;14.80;55.10;;;;;;5032267;28;20475;-68
2022/04/03 08:24:49;;;;;;;0.70;0.70;;;14.70;55.10;;;;;;5032292;28;20026;-68
2022/04/03 08:27:15;;;;;;;1.17;0.85;;;14.80;55.50;;;;;;5032263;28;20027;-68
2022/04/03 08:29:41;;;;;;;0.50;0.50;;;14.80;55.10;;;;;;5031010;28;20079;-68
2022/04/03 08:32:07;;;;;;;0.60;0.60;;;14.80;55.20;;;;;;5032740;28;20109;-68
2022/04/03 08:34:33;;;;;;;0.65;0.60;;;14.80;55.20;;;;;;5032244;28;20018;-68
2022/04/03 08:36:59;;;;;;;0.77;0.70;;;14.80;55.20;;;;;;5033153;28;20387;-68
2022/04/03 08:39:25;;;;;;;0.45;0.45;;;14.80;55.20;;;;;;5034800;28;20031;-68
2022/04/03 08:41:52;;;;;;;0.50;0.50;;;14.80;55.20;;;;;;5035213;28;20025;-68
2022/04/03 08:44:18;;;;;;;0.68;0.68;;;14.70;55.10;;;;;;5034832;28;20054;-68
2022/04/03 08:46:46;;;;;;;0.65;0.65;;;14.70;55.20;;;;;;5036221;28;20075;-68
2022/04/03 08:49:12;;;;;;;0.70;0.70;;;14.70;55.20;;;;;;5035974;28;20486;-68
2022/04/03 08:51:39;;;;;;;0.73;0.73;;;14.70;55.20;;;;;;5035034;28;20030;-68
2022/04/03 08:54:04;;;;;;;0.73;0.73;;;14.70;55.20;;;;;;5034687;28;20053;-68
2022/04/03 08:56:30;;;;;;;0.70;0.70;;;14.70;55.20;;;;;;5034652;28;20064;-68
2022/04/03 08:58:57;;;;;;;1.10;1.00;;;14.70;55.20;;;;;;5035926;28;20109;-68
2022/04/03 09:01:23;;;;;;;1.05;0.80;;;14.70;55.20;;;;;;5034623;28;20472;-68
2022/04/03 09:03:49;;;;;;;0.82;0.70;;;14.70;55.20;;;;;;5035770;28;20036;-68
2022/04/03 09:06:16;;;;;;;0.50;0.50;;;14.70;55.20;;;;;;5034663;28;20400;-68
2022/04/03 09:08:42;;;;;;;0.93;0.70;;;14.70;55.20;;;;;;5029537;28;20051;-68
2022/04/03 09:11:08;;;;;;;0.65;0.65;;;14.70;55.20;;;;;;5014938;28;20022;-68
2022/04/03 09:13:34;;;;;;;0.70;0.70;;;14.70;55.20;;;;;;5014716;28;20033;-68
2022/04/03 09:16:00;;;;;;;0.60;0.60;;;14.70;55.20;;;;;;5014818;28;20030;-68
2022/04/03 09:18:45;;;;;;;0.70;0.70;;;14.70;55.20;;;;;;5014739;28;20029;-68
2022/04/03 09:21:24;;;;;;;0.73;0.73;;;14.70;55.20;;;;;;5015713;28;20037;-68
2022/04/03 09:24:03;;;;;;;0.60;0.60;;;14.70;55.20;;;;;;5014789;28;20018;-68
2022/04/03 09:26:30;;;;;;;0.70;0.70;;;14.70;55.20;;;;;;5016010;28;20022;-68
2022/04/03 09:29:15;;;;;;;0.70;0.70;;;14.70;55.30;;;;;;5014422;28;20050;-68
2022/04/03 09:31:41;;;;;;;0.90;0.80;;;14.70;55.20;;;;;;5014672;28;20084;-68
2022/04/03 09:34:12;;;;;;;0.80;0.80;;;14.60;55.30;;;;;;5015719;28;20110;-68
2022/04/03 09:36:39;;;;;;;0.55;0.55;;;14.60;55.20;;;;;;4998714;28;20378;-68
2022/04/03 09:39:08;;;;;;;1.10;0.70;;;14.60;55.30;;;;;;5015446;28;20053;-68
2022/04/03 09:41:54;;;;;;;0.50;0.50;;;14.60;55.30;;;;;;5015300;28;20104;-68
2022/04/03 09:44:31;;;;;;;0.70;0.60;;;14.60;55.30;;;;;;4997569;28;20571;-68
2022/04/03 09:47:22;;;;;;;0.52;0.52;;;14.60;55.30;;;;;;5014434;28;20065;-68
2022/04/03 09:49:53;;;;;;;0.60;0.60;;;14.70;55.30;;;;;;5015138;28;20036;-68
2022/04/03 09:52:41;;;;;;;0.60;0.60;;;14.60;55.40;;;;;;5015023;28;20049;-68
2022/04/03 09:55:23;;;;;;;0.68;0.68;;;14.60;55.20;;;;;;5014100;28;20050;-68
2022/04/03 09:57:50;;;;;;;0.95;0.70;;;14.60;55.30;;;;;;5015339;28;20503;-68
2022/04/03 10:00:32;;;;;;;0.63;0.63;;;14.60;55.40;;;;;;5028782;28;20021;-68
2022/04/03 10:03:00;;;;;;;0.73;0.73;;;14.60;55.30;;;;;;5034949;28;20025;-68
2022/04/03 10:05:29;;;;;;;0.82;0.80;;;14.60;55.40;;;;;;5034744;28;20267;-68
2022/04/03 10:08:00;;;;;;;0.60;0.60;;;14.60;55.40;;;;;;5017457;28;20361;-68
2022/04/03 10:10:30;;;;;;;0.82;0.50;;;14.60;55.40;;;;;;5033386;28;20052;-68
2022/04/03 10:12:55;;;;;;;0.88;0.80;;;14.60;55.40;;;;;;5034684;28;20080;-68
2022/04/03 10:15:22;;;;;;;0.70;0.70;;;14.60;55.40;;;;;;5033412;28;20026;-68
2022/04/03 10:17:48;;;;;;;0.70;0.70;;;14.60;55.40;;;;;;5034672;28;20029;-68
2022/04/03 10:20:16;;;;;;;0.63;0.63;;;14.60;55.40;;;;;;5034346;28;20488;-68
2022/04/03 10:22:43;;;;;;;0.60;0.60;;;14.60;55.40;;;;;;5033272;28;20044;-68
2022/04/03 10:25:11;;;;;;;0.80;0.80;;;14.60;55.40;;;;;;5033340;28;20037;-68
2022/04/03 10:27:39;;;;;;;0.80;0.80;;;14.60;55.40;;;;;;5033164;28;20041;-68
2022/04/03 10:30:05;;;;;;;0.70;0.70;;;14.60;55.50;;;;;;5033294;28;20025;-68
2022/04/03 10:32:33;;;;;;;1.60;0.80;;;14.60;56.40;;;;;;5033108;28;20043;-68
2022/04/03 10:35:09;;;;;;;0.60;0.60;;;14.60;55.50;;;;;;5032982;28;20025;-68
2022/04/03 10:37:39;;;;;;;0.65;0.60;;;14.60;55.50;;;;;;5033154;28;20017;-68
2022/04/03 10:40:06;;;;;;;0.60;0.60;;;14.60;55.50;;;;;;5032909;28;20022;-68
2022/04/03 10:42:32;;;;;;;0.80;0.60;;;14.60;55.60;;;;;;5032846;28;20021;-68
2022/04/03 10:45:13;;;;;;;0.60;0.60;;;14.60;55.60;;;;;;5032541;28;20041;-68
2022/04/03 10:47:39;;;;;;;0.95;0.68;;;14.60;55.50;;;;;;5033960;28;20075;-68
2022/04/03 10:50:06;;;;;;;0.47;0.40;;;14.60;55.60;;;;;;5033795;28;20029;-68
2022/04/03 10:52:37;;;;;;;0.70;0.70;;;14.60;55.60;;;;;;5033795;28;20014;-68
2022/04/03 10:55:22;;;;;;;0.60;0.60;;;14.60;55.50;;;;;;5033963;28;20100;-68
2022/04/03 10:57:54;;;;;;;0.90;0.65;;;14.60;55.50;;;;;;5033771;28;20022;-68
2022/04/03 11:00:20;;;;;;;0.57;0.57;;;14.60;55.60;;;;;;5031895;28;20060;-68
2022/04/03 11:02:54;;;;;;;0.60;0.60;;;14.50;55.60;;;;;;5033662;28;20484;-68
2022/04/03 11:05:26;;;;;;;0.50;0.50;;;14.60;55.70;;;;;;5033457;28;20033;-68
2022/04/03 11:08:00;;;;;;;0.80;0.77;;;14.60;55.70;;;;;;5033592;28;20025;-68
2022/04/03 11:10:54;;;;;;;0.63;0.63;;;14.60;55.70;;;;;;5033416;28;20030;-68
2022/04/03 11:13:32;;;;;;;0.82;0.57;;;14.60;55.60;;;;;;5033847;28;20103;-68
2022/04/03 11:16:01;;;;;;;0.50;0.50;;;14.60;55.70;;;;;;5033571;28;20472;-68
2022/04/03 11:18:54;;;;;;;0.70;0.60;;;14.60;55.70;;;;;;5031801;28;20021;-68
2022/04/03 11:21:33;;;;;;;0.60;0.60;;;14.60;55.70;;;;;;5032252;28;20045;-68
2022/04/03 11:24:10;;;;;;;0.52;0.52;;;14.60;55.80;;;;;;5032347;28;20029;-68
2022/04/03 11:26:36;;;;;;;0.60;0.60;;;14.60;55.80;;;;;;5032100;28;20017;-68
2022/04/03 11:29:02;;;;;;;0.43;0.43;;;14.50;55.80;;;;;;5033145;28;20025;-68
2022/04/03 11:31:27;;;;;;;0.52;0.52;;;14.60;55.80;;;;;;5033248;28;20025;-68
2022/04/03 11:33:53;;;;;;;0.60;0.50;;;14.60;55.80;;;;;;5031904;28;20021;-68
2022/04/03 11:36:30;;;;;;;0.65;0.63;;;14.60;55.80;;;;;;5031966;28;20021;-68
2022/04/03 11:38:56;;;;;;;0.35;0.35;;;14.60;55.80;;;;;;5031921;28;20025;-68
2022/04/03 11:41:31;;;;;;;0.38;0.38;;;14.60;55.80;;;;;;5032038;28;20108;-68
2022/04/03 11:44:08;;;;;;;0.60;0.60;;;14.60;55.80;;;;;;5031727;28;20399;-68
2022/04/03 11:46:49;;;;;;;0.45;0.40;;;14.60;55.80;;;;;;5031838;28;20036;-68
2022/04/03 11:49:18;;;;;;;0.70;0.57;;;14.60;55.80;;;;;;5032680;28;20032;-68
2022/04/03 11:51:45;;;;;;;0.40;0.40;;;14.60;55.90;;;;;;5031519;28;20025;-68
2022/04/03 11:54:13;;;;;;;0.68;0.68;;;14.60;55.90;;;;;;5031664;28;20049;-68
2022/04/03 11:56:39;;;;;;;0.50;0.50;;;14.60;55.90;;;;;;5032919;28;20033;-68
2022/04/03 11:59:05;;;;;;;0.90;0.52;;;14.60;55.90;;;;;;5028650;28;20030;-68
2022/04/03 12:01:35;;;;;;;0.52;0.52;;;14.60;55.90;;;;;;5011898;28;20026;-68
2022/04/03 12:04:09;;;;;;;0.50;0.50;;;14.60;55.90;;;;;;5011657;28;20022;-68
2022/04/03 12:06:35;;;;;;;0.50;0.50;;;14.60;55.90;;;;;;5013109;28;20108;-68
2022/04/03 12:09:04;;;;;;;0.40;0.40;;;14.60;55.90;;;;;;5019142;28;20403;-68
2022/04/03 12:11:30;;;;;;;0.60;0.60;;;14.60;55.90;;;;;;5031480;28;20033;-68
2022/04/03 12:13:57;;;;;;;0.60;0.57;;;14.60;55.90;;;;;;5031427;28;20079;-68
2022/04/03 12:16:24;;;;;;;0.57;0.50;;;14.60;55.90;;;;;;5031312;28;20029;-68
2022/04/03 12:18:57;;;;;;;0.60;0.60;;;14.60;56.00;;;;;;5032400;28;20484;-68
2022/04/03 12:22:00;;;;;;;0.52;0.40;;;14.60;55.90;;;;;;5031518;28;20032;-68
2022/04/03 12:24:29;;;;;;;0.52;0.47;;;14.60;55.90;;;;;;5010812;28;20065;-68
2022/04/03 12:27:01;;;;;;;0.52;0.40;;;14.50;56.00;;;;;;4994210;28;20182;-68
2022/04/03 12:29:27;;;;;;;0.47;0.47;;;14.60;56.00;;;;;;4978614;28;20028;-68
2022/04/03 12:32:01;;;;;;;0.50;0.50;;;14.60;56.00;;;;;;4994319;28;20028;-68
2022/04/03 12:34:28;;;;;;;0.50;0.50;;;14.60;56.10;;;;;;4994370;28;20030;-68
2022/04/03 12:36:55;;;;;;;0.50;0.50;;;14.60;56.00;;;;;;5010595;28;20029;-68
2022/04/03 12:39:33;;;;;;;1.17;0.50;;;14.60;56.00;;;;;;4994326;28;20053;-68
2022/04/03 12:42:21;;;;;;;0.50;0.50;;;14.60;56.00;;;;;;5010620;28;20481;-68
2022/04/03 12:45:13;;;;;;;0.35;0.35;;;14.60;56.00;;;;;;5010107;28;20082;-68
2022/04/03 12:48:03;;;;;;;1.23;0.57;;;14.60;56.10;;;;;;5000009;28;20067;-68
2022/04/03 12:50:38;;;;;;;0.43;0.43;;;14.60;56.10;;;;;;4997438;28;20025;-68